Brewster, Ohio
Current Conditions -  °F | °C
As of 9:51 AM on Thursday 18 Dec 2014 (Local Time) from KCAK Reporting Station
Light Snow Light Snow  
Wind Chill: 21°   Ceiling: 1400
Heat Index: 28°   Visibility: 5mi
Dew Point: 22°   Wind: 7mph
Humidity: 78%   Direction: 290°WNW
Pressure: 30.19"   Gusts: NA
Location:  40.71°N, 81.6°W
Report Text: KCAK 181451Z 29006KT 5SM -SN OVC014 M02/M06 A3019 RMK AO2 SLP238 PCPN VRY LGT P0000 60000 T10221056 53004
Loading
Personal Weather Stations






























Interactive Weather Map New forecast layout! Learn more

10-Day Weather Forecast

Advertisements
Track Severe Weather on mobile